Time;durP1;ratioP1;P1;durP2;ratioP2;P2;SDS_P1;SDS_P2;PMS_P1;PMS_P2;Temp;Humidity;BMP_temperature;BMP_pressure;BME280_temperature;BME280_humidity;BME280_pressure;Samples;Min_cycle;Max_cycle;Signal;HPM_P1;HPM_P2
2022/05/11 00:04:01;;;;;;;9.33;4.53;;;;;;;18.59;49.68;100496.57;5216194;56;1141089;-72
2022/05/11 00:09:09;;;;;;;9.50;5.30;;;;;;;18.58;49.71;100500.25;5216081;56;1138978;-73
2022/05/11 00:14:15;;;;;;;13.50;4.57;;;;;;;18.55;49.88;100484.48;5195885;56;1138991;-73
2022/05/11 00:19:21;;;;;;;8.87;5.17;;;;;;;18.48;50.27;100479.50;5140813;57;1141047;-72
2022/05/11 00:24:27;;;;;;;10.53;5.33;;;;;;;18.42;50.47;100480.17;5191133;56;1139012;-74
2022/05/11 00:29:34;;;;;;;15.93;5.87;;;;;;;18.35;51.04;100474.31;5054386;58;1141145;-74
2022/05/11 00:34:39;;;;;;;9.65;5.20;;;;;;;18.32;51.01;100467.48;5149847;57;1141365;-73
2022/05/11 00:39:46;;;;;;;10.27;5.67;;;;;;;18.30;51.17;100461.95;5149573;57;1139039;-75
2022/05/11 00:44:54;;;;;;;16.43;5.50;;;;;;;18.26;51.74;100454.77;5149763;57;1141070;-73
2022/05/11 00:50:06;;;;;;;9.90;6.07;;;;;;;18.18;51.89;100454.25;5145636;57;1141128;-75
2022/05/11 00:55:32;;;;;;;11.48;5.50;;;;;;;18.13;52.15;100446.42;5178396;56;1139162;-72
2022/05/11 01:00:38;;;;;;;12.80;5.57;;;;;;;18.06;52.47;100455.61;5233831;56;1141149;-74
2022/05/11 01:05:46;;;;;;;16.27;5.27;;;;;;;17.97;52.93;100455.80;5191853;56;1141112;-75
2022/05/11 01:10:52;;;;;;;10.70;5.30;;;;;;;17.91;53.21;100456.80;5064595;57;1141102;-73
2022/05/11 01:16:01;;;;;;;7.57;4.73;;;;;;;17.85;53.35;100448.62;5087496;57;1141207;-74
2022/05/11 01:21:07;;;;;;;13.30;5.73;;;;;;;17.84;53.57;100441.09;5207663;56;1139039;-75
2022/05/11 01:26:15;;;;;;;8.60;5.47;;;;;;;17.85;53.86;100422.70;5217553;56;1141087;-73
2022/05/11 01:31:22;;;;;;;13.67;5.67;;;;;;;17.82;54.10;100432.40;5217706;56;1139275;-75
2022/05/11 01:36:34;;;;;;;10.20;5.17;;;;;;;17.68;54.45;100423.70;5217247;56;1141092;-74
2022/05/11 01:41:44;;;;;;;10.93;5.20;;;;;;;17.67;54.80;100423.87;5217860;56;1141203;-75
2022/05/11 01:46:53;;;;;;;8.03;5.47;;;;;;;17.61;55.49;100414.63;5217479;56;1139051;-75
2022/05/11 01:51:59;;;;;;;17.30;5.50;;;;;;;17.55;55.50;100419.33;5217728;56;1136957;-73
2022/05/11 01:57:05;;;;;;;14.63;5.53;;;;;;;17.52;55.86;100413.80;5218130;56;1139040;-75
2022/05/11 02:02:11;;;;;;;17.63;6.30;;;;;;;17.49;56.25;100413.30;5218246;56;1139058;-72
2022/05/11 02:12:40;;;;;;;9.53;5.83;;;;;;;17.41;56.78;100399.94;5027076;58;1139097;-73
2022/05/11 02:17:47;;;;;;;14.50;6.20;;;;;;;17.39;56.98;100407.28;4974758;58;1136976;-75
2022/05/11 02:22:53;;;;;;;12.20;5.97;;;;;;;17.39;57.52;100395.25;4876079;59;1139074;-75
2022/05/11 02:27:59;;;;;;;21.20;6.13;;;;;;;17.38;57.96;100396.25;4881283;59;1139195;-73
2022/05/11 02:33:05;;;;;;;19.13;6.00;;;;;;;17.32;58.71;100376.84;4903807;59;1139089;-74
2022/05/11 02:38:15;;;;;;;9.33;5.93;;;;;;;17.31;58.25;100386.70;5045064;58;1139078;-72
2022/05/11 02:43:21;;;;;;;8.47;5.80;;;;;;;17.34;58.51;100379.70;5045039;58;1136973;-75
2022/05/11 02:48:31;;;;;;;10.37;5.27;;;;;;;17.34;58.78;100370.34;5045009;58;1137022;-75
2022/05/11 02:53:35;;;;;;;11.83;6.10;;;;;;;17.36;58.94;100365.67;5052594;58;1137294;-74
2022/05/11 02:58:41;;;;;;;9.00;5.40;;;;;;;17.34;59.24;100369.50;5054563;58;1136995;-72
2022/05/11 03:03:47;;;;;;;13.67;6.23;;;;;;;17.33;59.60;100367.83;5054662;58;1139551;-75
2022/05/11 03:08:52;;;;;;;12.07;6.23;;;;;;;17.19;60.15;100394.22;5052697;58;1141089;-74
2022/05/11 03:13:58;;;;;;;12.78;6.80;;;;;;;17.15;61.02;100399.55;5043914;58;1141113;-73
2022/05/11 03:19:05;;;;;;;9.18;5.25;;;;;;;17.08;61.12;100381.67;5150189;57;1141087;-75
2022/05/11 03:24:11;;;;;;;10.57;6.30;;;;;;;17.06;61.30;100378.33;5149880;57;1139072;-74
2022/05/11 03:29:19;;;;;;;11.17;5.67;;;;;;;17.08;61.42;100379.00;5149829;57;1141147;-73
2022/05/11 03:34:37;;;;;;;14.47;6.37;;;;;;;17.09;61.53;100395.38;5149849;57;1141259;-76
2022/05/11 03:39:43;;;;;;;16.23;6.03;;;;;;;17.12;62.03;100372.30;5149909;57;1141198;-73
2022/05/11 03:49:59;;;;;;;19.67;6.30;;;;;;;17.10;63.01;100385.86;5359170;55;46181;-75
2022/05/11 03:55:09;;;;;;;15.40;6.90;;;;;;;17.04;63.47;100391.84;5102325;57;1136933;-71
2022/05/11 04:00:21;;;;;;;13.53;6.70;;;;;;;16.99;63.76;100394.66;5040111;57;1141157;-70
2022/05/11 04:05:28;;;;;;;10.17;6.50;;;;;;;16.97;64.11;100395.32;5187839;57;1141158;-72
2022/05/11 04:10:34;;;;;;;11.10;5.90;;;;;;;16.99;63.86;100383.48;5104826;57;1141219;-71
2022/05/11 04:15:40;;;;;;;9.30;6.03;;;;;;;17.05;63.99;100390.84;5096215;57;1141096;-71
2022/05/11 04:20:46;;;;;;;10.20;6.20;;;;;;;17.08;64.25;100401.72;5142898;57;1138989;-72
2022/05/11 04:25:51;;;;;;;21.43;7.20;;;;;;;17.08;64.68;100403.05;5143286;57;1141104;-72
2022/05/11 04:31:06;;;;;;;10.57;6.50;;;;;;;17.06;64.23;100400.55;5134671;57;1141109;-73
2022/05/11 04:36:12;;;;;;;12.63;7.07;;;;;;;17.09;64.48;100398.88;5077764;57;1141232;-73
2022/05/11 04:41:18;;;;;;;16.57;7.27;;;;;;;17.10;64.67;100400.56;5111727;57;1140529;-74
2022/05/11 04:46:24;;;;;;;14.47;7.13;;;;;;;17.06;64.86;100391.69;5033108;58;1141179;-74
2022/05/11 04:51:29;;;;;;;16.10;7.37;;;;;;;17.07;65.19;100398.70;5041730;57;1141102;-74
2022/05/11 04:56:37;;;;;;;12.80;7.00;;;;;;;17.06;65.29;100399.70;5050554;57;1141078;-74
2022/05/11 05:01:45;;;;;;;11.77;6.83;;;;;;;17.06;65.79;100420.58;5048349;57;1141095;-74
2022/05/11 05:06:50;;;;;;;11.97;6.10;;;;;;;16.99;66.05;100430.23;5004854;57;1141124;-72
2022/05/11 05:11:57;;;;;;;11.23;6.80;;;;;;;16.97;66.41;100428.22;4955431;59;1141157;-74
2022/05/11 05:17:09;;;;;;;10.57;6.90;;;;;;;16.99;66.65;100431.56;5032922;56;1140710;-73
2022/05/11 05:22:15;;;;;;;15.47;6.60;;;;;;;17.06;67.35;100431.77;5043430;56;1141122;-72
2022/05/11 05:27:21;;;;;;;13.50;6.47;;;;;;;17.08;67.59;100442.64;4904311;57;1140484;-70
2022/05/11 05:32:27;;;;;;;8.87;6.70;;;;;;;17.08;67.85;100446.64;4885664;58;1141155;-72
2022/05/11 05:37:33;;;;;;;10.10;6.33;;;;;;;17.05;67.91;100435.44;4878080;58;1139071;-73
2022/05/11 05:42:40;;;;;;;17.57;6.53;;;;;;;17.15;68.03;100456.17;4938994;59;1139237;-73
2022/05/11 05:47:46;;;;;;;17.90;7.90;;;;;;;17.20;68.55;100456.03;4982966;58;1139099;-71
2022/05/11 05:52:53;;;;;;;20.00;7.47;;;;;;;17.26;68.91;100465.23;5049584;57;1138986;-72
2022/05/11 05:57:59;;;;;;;16.90;7.00;;;;;;;17.32;69.36;100465.91;5026825;57;1139085;-74
2022/05/11 06:03:05;;;;;;;11.50;7.43;;;;;;;17.39;68.95;100455.41;5042068;58;1139049;-72
2022/05/11 06:08:15;;;;;;;10.97;7.40;;;;;;;17.44;68.66;100457.06;5006914;58;1139054;-71
2022/05/11 06:13:22;;;;;;;15.17;7.60;;;;;;;17.53;68.94;100466.79;5031294;58;1139079;-73
2022/05/11 06:18:29;;;;;;;11.90;7.47;;;;;;;17.62;68.60;100463.61;5005283;58;1139059;-73
2022/05/11 06:23:36;;;;;;;46.30;8.53;;;;;;;17.76;68.53;100458.47;5018460;59;1138356;-75
2022/05/11 06:28:42;;;;;;;18.13;7.30;;;;;;;17.93;68.56;100465.50;5040298;58;1139567;-72
2022/05/11 06:33:50;;;;;;;23.47;8.70;;;;;;;18.14;67.89;100462.81;4983544;59;1139175;-73
2022/05/11 06:38:58;;;;;;;17.00;7.10;;;;;;;18.24;66.26;100464.30;5018662;59;1139344;-73
2022/05/11 06:44:04;;;;;;;25.10;6.93;;;;;;;18.32;66.12;100463.46;4965306;58;1138985;-75
2022/05/11 06:49:10;;;;;;;17.63;7.87;;;;;;;18.42;65.38;100461.92;5035423;58;1139117;-75
2022/05/11 06:59:38;;;;;;;16.75;6.28;;;;;;;18.69;65.16;100452.16;4962762;58;1141086;-74
2022/05/11 07:04:44;;;;;;;19.43;6.70;;;;;;;18.90;64.55;100451.08;5059472;57;1141073;-75
2022/05/11 07:09:49;;;;;;;15.40;6.07;;;;;;;19.14;63.23;100444.75;4999820;58;1141379;-73
2022/05/11 07:14:59;;;;;;;9.93;5.95;;;;;;;19.43;62.40;100443.23;5009099;59;1141091;-76
2022/05/11 07:20:12;;;;;;;8.52;6.02;;;;;;;19.64;62.20;100446.14;4963770;59;1139102;-74
2022/05/11 07:25:25;;;;;;;14.85;6.05;;;;;;;19.85;61.61;100453.02;5048058;58;1139093;-74
2022/05/11 07:30:35;;;;;;;12.63;5.35;;;;;;;20.04;61.89;100451.66;4994473;58;1140546;-74
2022/05/11 07:35:42;;;;;;;10.05;4.37;;;;;;;20.22;61.01;100453.50;4913215;59;1140494;-72
2022/05/11 07:40:48;;;;;;;12.43;5.50;;;;;;;20.36;60.00;100465.31;5129291;57;1141091;-76
2022/05/11 07:45:54;;;;;;;11.40;4.80;;;;;;;20.35;58.98;100463.10;5118614;56;1141169;-74
2022/05/11 07:51:00;;;;;;;12.47;5.00;;;;;;;20.35;57.76;100467.64;5128544;56;1141289;-75
2022/05/11 08:01:30;;;;;;;11.20;5.30;;;;;;;20.46;57.77;100460.53;4911025;59;1141197;-74
